Pascagoula, MS (39568)

1:11 AM CST on March 01, 2015 (GMT -0600)
NERRS NERRS METEOROLOGICAL SITE AT GRAND BAY | Change Station
CLOSE
Current Station
Personal Weather Station
Location: Pascagoula, MS
Elevation: 0 ft
Nearby Weather Stations

Elev 0 ft 30.36 °N, 88.42 °W | Updated 1 hour ago

Overcast
Overcast
54 °F
Feels Like 54 °F
N
14
Wind Variable Wind from ESE
Gusts 0.0 mph

Today
High -- | Low -- °F
--% Chance of Precip.
Yesterday
High -- | Low -- °F
Precip. -- in
6:20 AM 5:52 PM
Waxing Gibbous, 83% visible
Pressure 30.37 in
Visibility 7.0 miles
Clouds Overcast 900 ft
Dew Point 52 °F
Humidity 91%
Rainfall -999.00 in
Snow Depth Not available.
UV 0 out of 12
Pollen 9.00 out of 12
Air Quality Not available.
Flu Activity Not available.
METAR KPQL 010653Z AUTO 09010KT 7SM OVC009 12/11 A3037 RMK AO2 SLP284 T01220106 TSNO

More Conditions Fewer Conditions

Pressure 30.37 in
Visibility 7.0 miles
Clouds Overcast 900 ft
Dew Point 52 °F
Humidity 91%
Rainfall -999.00 in
Snow Depth Not available.
UV 0 out of 12
Pollen 9.00 out of 12
Air Quality Not available.
Flu Activity Not available.
METAR KPQL 010653Z AUTO 09010KT 7SM OVC009 12/11 A3037 RMK AO2 SLP284 T01220106 TSNO

More Conditions Fewer Conditions

10-Day Weather Forecast

Almanac

Astronomy

Mar. 01, 2015 Rise Set
Actual Time
Civil Twilight
Nautical Twilight
Astronomical Twilight
Moon
Length of Visible Light
Length of Day
Tomorrow will be .
, % of the Moon is Illuminated

Today's Extremes

State Highs State Lows

Community

WunderPhotos

Upload Photos

1,801,347 photos uploaded!

WunderBlogs® & News

Nearby

Air Quality

  Air Quality AQ Index Pollutant
Not available.

Snow Depth

Station Depth Elevation

Earthquake Activity

City Distance Mag. Time & Date
Minimum magnitude displayed is 2.5.

Coastal Water Temperatures

Place Temperature

Nearby Weather Stations